createdAt,value
2023-01-22T00:01:44.590Z,28.43
2023-01-22T00:04:12.460Z,30.27
2023-01-22T00:06:40.306Z,27.00
2023-01-22T00:09:09.667Z,31.10
2023-01-22T00:11:37.570Z,27.30
2023-01-22T00:14:05.860Z,25.23
2023-01-22T00:16:33.791Z,25.70
2023-01-22T00:19:01.689Z,30.70
2023-01-22T00:21:29.568Z,28.27
2023-01-22T00:23:57.453Z,25.93
2023-01-22T00:26:26.772Z,28.70
2023-01-22T00:28:54.642Z,29.40
2023-01-22T00:31:23.675Z,33.83
2023-01-22T00:33:51.721Z,29.03
2023-01-22T00:36:20.435Z,27.83
2023-01-22T00:38:48.273Z,25.60
2023-01-22T00:41:16.311Z,32.17
2023-01-22T00:43:45.574Z,26.50
2023-01-22T00:46:14.862Z,32.13
2023-01-22T00:48:42.853Z,34.77
2023-01-22T00:51:13.031Z,32.27
2023-01-22T00:53:41.465Z,31.27
2023-01-22T00:56:09.362Z,35.13
2023-01-22T00:58:37.225Z,29.23
2023-01-22T01:01:07.233Z,27.13
2023-01-22T01:03:36.737Z,25.93
2023-01-22T01:06:05.850Z,26.20
2023-01-22T01:08:34.551Z,29.80
2023-01-22T01:11:03.772Z,22.87
2023-01-22T01:13:33.067Z,24.73
2023-01-22T01:16:01.986Z,30.63
2023-01-22T01:18:31.718Z,27.97
2023-01-22T01:20:59.901Z,20.30
2023-01-22T01:23:28.307Z,27.43
2023-01-22T01:25:56.172Z,26.50
2023-01-22T01:28:24.931Z,23.60
2023-01-22T01:30:52.827Z,26.13
2023-01-22T01:33:20.815Z,25.40
2023-01-22T01:35:50.178Z,23.67
2023-01-22T01:38:18.077Z,19.43
2023-01-22T01:40:46.121Z,22.57
2023-01-22T01:43:17.449Z,22.20
2023-01-22T01:45:45.309Z,25.50
2023-01-22T01:48:17.821Z,24.07
2023-01-22T01:50:47.337Z,25.47
2023-01-22T01:53:16.670Z,20.43
2023-01-22T01:55:44.561Z,25.97
2023-01-22T01:58:18.447Z,21.53
2023-01-22T02:00:46.385Z,22.93
2023-01-22T02:03:14.347Z,22.77
2023-01-22T02:05:42.268Z,19.10
2023-01-22T02:08:10.184Z,21.27
2023-01-22T02:10:39.967Z,20.97
2023-01-22T02:13:09.910Z,23.53
2023-01-22T02:15:38.192Z,19.93
2023-01-22T02:18:06.103Z,21.13
2023-01-22T02:20:36.572Z,19.97
2023-01-22T02:23:04.452Z,21.93
2023-01-22T02:25:33.873Z,18.00
2023-01-22T02:28:01.795Z,16.30
2023-01-22T02:30:29.733Z,15.63
2023-01-22T02:32:57.667Z,22.33
2023-01-22T02:35:25.534Z,18.37
2023-01-22T02:37:54.834Z,22.53
2023-01-22T02:40:22.770Z,23.97
2023-01-22T02:42:50.599Z,24.03
2023-01-22T02:45:18.616Z,19.30
2023-01-22T02:47:46.465Z,21.87
2023-01-22T02:50:14.320Z,20.90
2023-01-22T02:52:42.226Z,15.77
2023-01-22T02:55:11.588Z,16.00
2023-01-22T02:57:39.451Z,19.43
2023-01-22T03:00:09.266Z,18.10
2023-01-22T03:02:37.141Z,17.27
2023-01-22T03:05:05.256Z,17.53
2023-01-22T03:07:42.186Z,20.07
2023-01-22T03:10:13.618Z,15.83
2023-01-22T03:12:59.025Z,16.53
2023-01-22T03:15:44.330Z,16.90
2023-01-22T03:18:29.920Z,16.43
2023-01-22T03:21:16.854Z,16.60
2023-01-22T03:23:45.569Z,18.73
2023-01-22T03:26:15.205Z,14.07
2023-01-22T03:28:43.158Z,13.20
2023-01-22T03:31:11.098Z,16.17
2023-01-22T03:33:39.036Z,15.93
2023-01-22T03:36:09.029Z,14.07
2023-01-22T03:38:36.957Z,18.30
2023-01-22T03:41:05.789Z,16.43
2023-01-22T03:43:35.361Z,16.47
2023-01-22T03:46:04.773Z,19.07
2023-01-22T03:48:32.831Z,16.33
2023-01-22T03:51:06.063Z,16.90
2023-01-22T03:53:34.052Z,18.10
2023-01-22T03:56:02.822Z,20.40
2023-01-22T03:58:30.812Z,20.87
2023-01-22T04:01:01.815Z,12.90
2023-01-22T04:03:30.097Z,13.37
2023-01-22T04:06:00.211Z,14.23
2023-01-22T04:08:29.038Z,13.07
2023-01-22T04:10:57.027Z,12.17
2023-01-22T04:13:25.040Z,14.40
2023-01-22T04:15:52.996Z,15.57
2023-01-22T04:18:22.271Z,11.00
2023-01-22T04:20:50.228Z,15.00
2023-01-22T04:23:18.207Z,11.77
2023-01-22T04:25:46.233Z,16.70
2023-01-22T04:28:14.755Z,16.33
2023-01-22T04:30:42.899Z,19.70
2023-01-22T04:33:10.837Z,13.53
2023-01-22T04:35:40.238Z,10.97
2023-01-22T04:38:08.490Z,14.47
2023-01-22T04:40:36.357Z,13.73
2023-01-22T04:43:04.297Z,10.60
2023-01-22T04:45:32.284Z,9.43
2023-01-22T04:48:00.689Z,13.60
2023-01-22T04:50:29.490Z,14.63
2023-01-22T04:52:58.831Z,12.93
2023-01-22T04:55:26.913Z,16.20
2023-01-22T04:57:55.303Z,11.37
2023-01-22T05:00:23.361Z,18.40
2023-01-22T05:02:51.288Z,13.10
2023-01-22T05:05:19.219Z,18.23
2023-01-22T05:07:47.076Z,9.17
2023-01-22T05:10:17.340Z,14.23
2023-01-22T05:12:45.450Z,11.63
2023-01-22T05:15:23.587Z,14.77
2023-01-22T05:17:52.231Z,13.60
2023-01-22T05:20:20.505Z,8.77
2023-01-22T05:22:48.581Z,9.60
2023-01-22T05:25:17.969Z,9.67
2023-01-22T05:27:45.818Z,9.13
2023-01-22T05:30:14.414Z,19.00
2023-01-22T05:32:42.426Z,10.53
2023-01-22T05:35:10.891Z,8.00
2023-01-22T05:37:38.771Z,13.70
2023-01-22T05:40:08.072Z,11.43
2023-01-22T05:42:37.292Z,11.00
2023-01-22T05:45:05.859Z,10.80
2023-01-22T05:47:33.760Z,10.73
2023-01-22T05:50:01.628Z,9.20
2023-01-22T05:52:29.474Z,9.80
2023-01-22T05:54:59.905Z,12.37
2023-01-22T05:57:29.743Z,8.53
2023-01-22T05:59:59.039Z,12.60
2023-01-22T06:02:26.958Z,11.63
2023-01-22T06:04:54.832Z,11.17
2023-01-22T06:07:22.711Z,9.63
2023-01-22T06:09:50.639Z,10.93
2023-01-22T06:12:18.541Z,10.03
2023-01-22T06:14:46.462Z,11.17
2023-01-22T06:17:15.749Z,10.83
2023-01-22T06:19:43.618Z,11.40
2023-01-22T06:22:11.698Z,11.17
2023-01-22T06:24:39.983Z,9.00
2023-01-22T06:27:07.856Z,9.47
2023-01-22T06:29:35.774Z,7.57
2023-01-22T06:32:03.688Z,6.67
2023-01-22T06:34:32.961Z,9.87
2023-01-22T06:37:00.862Z,10.53
2023-01-22T06:39:28.816Z,8.77
2023-01-22T06:41:56.742Z,9.43
2023-01-22T06:44:24.712Z,7.67
2023-01-22T06:46:52.613Z,5.70
2023-01-22T06:49:20.647Z,8.00
2023-01-22T06:51:49.905Z,11.47
2023-01-22T06:54:17.795Z,8.23
2023-01-22T06:56:45.651Z,5.00
2023-01-22T06:59:13.523Z,8.27
2023-01-22T07:01:42.233Z,11.67
2023-01-22T07:04:10.836Z,5.17
2023-01-22T07:06:38.940Z,7.07
2023-01-22T07:09:08.196Z,8.93
2023-01-22T07:11:36.058Z,6.77
2023-01-22T07:14:03.955Z,10.30
2023-01-22T07:16:32.027Z,7.07
2023-01-22T07:18:59.974Z,3.70
2023-01-22T07:21:28.222Z,11.43
2023-01-22T07:23:56.108Z,6.17
2023-01-22T07:26:25.348Z,5.33
2023-01-22T07:28:53.190Z,6.80
2023-01-22T07:31:21.134Z,7.13
2023-01-22T07:33:49.065Z,4.20
2023-01-22T07:36:16.946Z,8.10
2023-01-22T07:38:44.831Z,11.27
2023-01-22T07:41:25.154Z,11.40
2023-01-22T07:43:57.646Z,8.67
2023-01-22T07:46:25.591Z,10.97
2023-01-22T07:48:53.554Z,5.77
2023-01-22T07:51:21.548Z,5.97
2023-01-22T07:53:49.453Z,5.83
2023-01-22T07:56:19.073Z,4.67
2023-01-22T07:58:46.939Z,6.47
2023-01-22T08:01:17.093Z,6.37
2023-01-22T08:03:45.352Z,5.30
2023-01-22T08:06:14.363Z,9.97
2023-01-22T08:08:45.056Z,8.17
2023-01-22T08:11:12.889Z,8.37
2023-01-22T08:13:40.901Z,7.10
2023-01-22T08:16:09.834Z,6.87
2023-01-22T08:18:39.098Z,4.07
2023-01-22T08:21:07.262Z,4.13
2023-01-22T08:23:35.212Z,8.53
2023-01-22T08:26:04.023Z,3.47
2023-01-22T08:28:32.351Z,5.57
2023-01-22T08:31:00.427Z,3.60
2023-01-22T08:33:28.378Z,3.20
2023-01-22T08:35:57.648Z,7.20
2023-01-22T08:38:25.610Z,10.10
2023-01-22T08:40:53.626Z,5.40
2023-01-22T08:43:21.548Z,5.53
2023-01-22T08:45:49.739Z,4.63
2023-01-22T08:48:17.750Z,3.57
2023-01-22T08:50:45.651Z,7.10
2023-01-22T08:53:14.894Z,6.00
2023-01-22T08:55:42.750Z,8.00
2023-01-22T08:58:10.597Z,7.70
2023-01-22T09:00:38.502Z,5.17
2023-01-22T09:03:06.348Z,4.17
2023-01-22T09:05:34.214Z,8.27
2023-01-22T09:08:02.081Z,7.80
2023-01-22T09:10:31.380Z,6.50
2023-01-22T09:13:00.028Z,8.87
2023-01-22T09:15:28.010Z,5.20
2023-01-22T09:17:55.907Z,3.40
2023-01-22T09:20:23.954Z,3.10
2023-01-22T09:22:51.817Z,5.17
2023-01-22T09:25:20.508Z,5.00
2023-01-22T09:27:49.786Z,3.63
2023-01-22T09:30:18.219Z,7.07
2023-01-22T09:32:46.207Z,6.13
2023-01-22T09:35:16.400Z,8.93
2023-01-22T09:37:44.620Z,7.83
2023-01-22T09:40:17.135Z,10.47
2023-01-22T09:42:45.233Z,8.73
2023-01-22T09:45:15.085Z,7.83
2023-01-22T09:47:44.104Z,5.27
2023-01-22T09:50:16.257Z,7.30
2023-01-22T09:52:44.466Z,6.60
2023-01-22T09:55:13.797Z,7.80
2023-01-22T09:57:43.081Z,6.30
2023-01-22T10:00:17.333Z,10.67
2023-01-22T10:02:46.205Z,5.73
2023-01-22T10:05:19.235Z,5.00
2023-01-22T10:07:51.839Z,6.70
2023-01-22T10:10:21.167Z,4.27
2023-01-22T10:12:51.357Z,6.27
2023-01-22T10:15:21.796Z,3.80
2023-01-22T10:17:49.690Z,5.50
2023-01-22T10:20:18.957Z,8.40
2023-01-22T10:22:48.953Z,5.83
2023-01-22T10:25:17.411Z,7.23
2023-01-22T10:27:45.623Z,6.07
2023-01-22T10:30:21.538Z,5.00
2023-01-22T10:32:59.559Z,4.17
2023-01-22T10:35:27.893Z,6.53
2023-01-22T10:37:56.842Z,5.00
2023-01-22T10:40:26.568Z,5.17
2023-01-22T10:43:05.887Z,6.80
2023-01-22T10:45:35.134Z,6.90
2023-01-22T10:48:13.938Z,4.87
2023-01-22T10:50:42.241Z,6.13
2023-01-22T10:53:20.736Z,4.93
2023-01-22T10:55:55.664Z,11.10
2023-01-22T10:58:25.014Z,6.97
2023-01-22T11:01:02.715Z,5.27
2023-01-22T11:03:32.833Z,9.70
2023-01-22T11:06:02.225Z,9.67
2023-01-22T11:08:31.437Z,4.80
2023-01-22T11:11:00.931Z,9.33
2023-01-22T11:13:31.278Z,5.40
2023-01-22T11:16:02.900Z,5.73
2023-01-22T11:18:32.988Z,4.03
2023-01-22T11:21:01.749Z,6.10
2023-01-22T11:23:34.579Z,6.53
2023-01-22T11:26:04.851Z,7.07
2023-01-22T11:28:41.730Z,8.30
2023-01-22T11:31:40.894Z,4.83
2023-01-22T11:34:37.076Z,7.07
2023-01-22T11:37:09.167Z,5.70
2023-01-22T11:39:45.405Z,7.37
2023-01-22T11:42:20.744Z,6.67
2023-01-22T11:44:55.840Z,5.93
2023-01-22T11:47:40.847Z,9.87
2023-01-22T11:50:26.837Z,6.47
2023-01-22T11:52:58.587Z,3.97
2023-01-22T11:55:56.109Z,12.03
2023-01-22T11:58:32.782Z,7.17
2023-01-22T12:01:10.038Z,9.30
2023-01-22T12:03:59.920Z,3.73
2023-01-22T12:06:39.665Z,7.47
2023-01-22T12:09:09.896Z,4.10
2023-01-22T12:11:51.848Z,6.77
2023-01-22T12:14:30.217Z,6.43
2023-01-22T12:17:03.871Z,9.90
2023-01-22T12:19:55.826Z,4.17
2023-01-22T12:22:29.926Z,6.53
2023-01-22T12:25:00.308Z,7.40
2023-01-22T12:27:30.291Z,9.47
2023-01-22T12:30:01.920Z,7.00
2023-01-22T12:32:30.687Z,8.43
2023-01-22T12:35:01.772Z,10.37
2023-01-22T12:37:33.074Z,8.57
2023-01-22T12:40:11.462Z,11.70
2023-01-22T12:42:42.044Z,6.90
2023-01-22T12:45:19.028Z,7.77
2023-01-22T12:47:50.079Z,12.30
2023-01-22T12:50:21.144Z,8.97
2023-01-22T12:52:59.054Z,8.17
2023-01-22T12:55:32.320Z,6.07
2023-01-22T12:58:00.329Z,9.23
2023-01-22T13:00:34.546Z,8.33
2023-01-22T13:03:04.386Z,14.47
2023-01-22T13:05:42.663Z,11.20
2023-01-22T13:08:25.482Z,11.43
2023-01-22T13:10:55.033Z,6.23
2023-01-22T13:13:28.851Z,9.10
2023-01-22T13:15:58.669Z,9.90
2023-01-22T13:18:27.566Z,7.10
2023-01-22T13:21:02.803Z,10.23
2023-01-22T13:23:31.646Z,21.10
2023-01-22T13:25:59.733Z,10.50
2023-01-22T13:28:27.897Z,10.37
2023-01-22T13:31:00.508Z,9.33
2023-01-22T13:33:28.546Z,13.43
2023-01-22T13:35:57.937Z,13.23
2023-01-22T13:38:27.066Z,11.90
2023-01-22T13:40:56.715Z,10.20
2023-01-22T13:43:24.717Z,15.47
2023-01-22T13:45:53.176Z,9.13
2023-01-22T13:48:22.346Z,8.20
2023-01-22T13:50:54.065Z,10.33
2023-01-22T13:53:32.794Z,10.17
2023-01-22T13:56:01.250Z,10.03
2023-01-22T13:58:49.396Z,19.67
2023-01-22T14:01:28.222Z,23.67
2023-01-22T14:04:00.482Z,16.63
2023-01-22T14:06:28.582Z,15.53
2023-01-22T14:08:58.546Z,12.67
2023-01-22T14:11:26.581Z,17.33
2023-01-22T14:13:54.586Z,12.37
2023-01-22T14:16:22.754Z,10.20
2023-01-22T14:18:50.691Z,11.27
2023-01-22T14:21:18.593Z,15.67
2023-01-22T14:23:46.589Z,12.97
2023-01-22T14:26:15.890Z,10.33
2023-01-22T14:28:43.823Z,8.63
2023-01-22T14:31:11.839Z,8.43
2023-01-22T14:33:39.705Z,6.50
2023-01-22T14:36:08.503Z,9.37
2023-01-22T14:38:36.397Z,11.80
2023-01-22T14:41:04.805Z,7.93
2023-01-22T14:43:34.100Z,11.60
2023-01-22T14:46:02.004Z,6.13
2023-01-22T14:48:29.976Z,8.20
2023-01-22T14:50:57.954Z,7.63
2023-01-22T14:53:25.972Z,10.37
2023-01-22T14:55:53.837Z,7.30
2023-01-22T14:58:21.745Z,11.93
2023-01-22T15:00:51.093Z,5.03
2023-01-22T15:03:19.018Z,8.43
2023-01-22T15:05:46.973Z,7.87
2023-01-22T15:08:14.867Z,5.27
2023-01-22T15:10:42.816Z,4.37
2023-01-22T15:13:10.796Z,5.50
2023-01-22T15:15:38.743Z,3.30
2023-01-22T15:18:08.071Z,3.07
2023-01-22T15:20:36.038Z,8.60
2023-01-22T15:23:03.955Z,2.20
2023-01-22T15:25:33.025Z,16.70
2023-01-22T15:28:00.939Z,4.80
2023-01-22T15:30:28.870Z,5.00
2023-01-22T15:32:56.773Z,2.63
2023-01-22T15:35:26.080Z,2.33
2023-01-22T15:37:53.945Z,3.43
2023-01-22T15:40:22.182Z,17.27
2023-01-22T15:42:50.089Z,6.43
2023-01-22T15:45:18.064Z,2.70
2023-01-22T15:47:46.025Z,2.87
2023-01-22T15:50:20.227Z,1.80
2023-01-22T15:52:53.372Z,5.97
2023-01-22T15:55:21.309Z,4.83
2023-01-22T15:57:49.263Z,2.83
2023-01-22T16:00:17.893Z,7.47
2023-01-22T16:02:46.015Z,2.80
2023-01-22T16:05:14.012Z,4.20
2023-01-22T16:07:41.919Z,4.53
2023-01-22T16:10:12.410Z,8.60
2023-01-22T16:12:40.298Z,11.77
2023-01-22T16:15:09.214Z,12.83
2023-01-22T16:17:37.104Z,7.50
2023-01-22T16:20:06.410Z,9.27
2023-01-22T16:22:34.329Z,10.77
2023-01-22T16:25:02.233Z,10.03
2023-01-22T16:27:31.636Z,11.20
2023-01-22T16:29:59.829Z,13.80
2023-01-22T16:32:27.752Z,7.47
2023-01-22T16:34:55.621Z,14.27
2023-01-22T16:37:23.499Z,10.40
2023-01-22T16:39:51.399Z,8.67
2023-01-22T16:42:22.239Z,15.70
2023-01-22T16:44:51.649Z,14.47
2023-01-22T16:47:20.322Z,24.70
2023-01-22T16:49:48.896Z,18.23
2023-01-22T16:52:22.807Z,11.17
2023-01-22T16:54:51.066Z,13.23
2023-01-22T16:57:19.570Z,15.30
2023-01-22T16:59:47.498Z,12.03
2023-01-22T17:02:17.014Z,14.17
2023-01-22T17:04:45.324Z,13.87
2023-01-22T17:07:31.963Z,16.80
2023-01-22T17:10:01.319Z,9.30
2023-01-22T17:12:31.012Z,7.70
2023-01-22T17:14:58.924Z,5.73
2023-01-22T17:17:28.202Z,6.17
2023-01-22T17:19:56.166Z,9.83
2023-01-22T17:22:24.253Z,8.57
2023-01-22T17:24:52.690Z,11.00
2023-01-22T17:27:21.556Z,11.53
2023-01-22T17:29:49.457Z,6.33
2023-01-22T17:32:17.441Z,9.40
2023-01-22T17:34:46.957Z,8.27
2023-01-22T17:37:14.838Z,6.63
2023-01-22T17:39:43.504Z,13.50
2023-01-22T17:42:11.368Z,11.87
2023-01-22T17:44:40.896Z,9.60
2023-01-22T17:47:08.946Z,13.47
2023-01-22T17:49:36.928Z,8.60
2023-01-22T17:52:06.823Z,10.87
2023-01-22T17:54:34.797Z,7.43
2023-01-22T17:57:02.656Z,13.80
2023-01-22T17:59:30.573Z,10.30
2023-01-22T18:01:59.804Z,6.87
2023-01-22T18:04:27.686Z,8.53
2023-01-22T18:06:55.631Z,5.97
2023-01-22T18:09:25.051Z,8.70
2023-01-22T18:11:52.938Z,5.10
2023-01-22T18:14:22.927Z,4.77
2023-01-22T18:16:50.937Z,8.30
2023-01-22T18:19:19.090Z,5.97
2023-01-22T18:21:47.001Z,8.07
2023-01-22T18:24:15.024Z,5.57
2023-01-22T18:26:44.298Z,10.50
2023-01-22T18:29:12.326Z,7.13
2023-01-22T18:31:40.329Z,7.27
2023-01-22T18:34:08.726Z,8.67
2023-01-22T18:36:37.435Z,8.13
2023-01-22T18:39:06.462Z,5.90
2023-01-22T18:41:34.403Z,8.33
2023-01-22T18:44:03.692Z,8.60
2023-01-22T18:46:33.560Z,7.37
2023-01-22T18:49:02.387Z,8.67
2023-01-22T18:51:30.505Z,8.93
2023-01-22T18:53:59.328Z,12.10
2023-01-22T18:56:27.213Z,21.73
2023-01-22T18:58:55.317Z,11.53
2023-01-22T19:01:25.472Z,11.73
2023-01-22T19:03:54.431Z,7.57
2023-01-22T19:06:23.228Z,9.60
2023-01-22T19:08:58.507Z,19.00
2023-01-22T19:11:26.673Z,9.90
2023-01-22T19:13:54.675Z,11.37
2023-01-22T19:16:24.342Z,14.17
2023-01-22T19:18:55.027Z,12.27
2023-01-22T19:21:23.088Z,10.37
2023-01-22T19:23:51.750Z,11.93
2023-01-22T19:26:22.149Z,11.13
2023-01-22T19:28:50.097Z,10.13
2023-01-22T19:31:18.769Z,12.57
2023-01-22T19:33:48.246Z,13.77
2023-01-22T19:36:16.398Z,13.33
2023-01-22T19:38:44.403Z,9.63
2023-01-22T19:41:16.051Z,10.90
2023-01-22T19:43:43.944Z,7.73
2023-01-22T19:46:13.220Z,11.57
2023-01-22T19:48:41.310Z,17.97
2023-01-22T19:51:11.621Z,37.23
2023-01-22T19:53:39.963Z,10.00
2023-01-22T19:56:17.747Z,5.73
2023-01-22T19:58:46.640Z,6.63
2023-01-22T20:01:14.698Z,6.77
2023-01-22T20:03:42.644Z,8.60
2023-01-22T20:06:12.703Z,7.00
2023-01-22T20:08:40.600Z,8.40
2023-01-22T20:11:09.266Z,6.53
2023-01-22T20:13:37.503Z,16.30
2023-01-22T20:16:06.679Z,9.50
2023-01-22T20:18:34.687Z,7.50
2023-01-22T20:21:03.954Z,5.60
2023-01-22T20:23:33.249Z,6.57
2023-01-22T20:26:02.836Z,7.67
2023-01-22T20:28:30.725Z,12.80
2023-01-22T20:30:59.470Z,7.97
2023-01-22T20:33:27.611Z,4.40
2023-01-22T20:35:56.901Z,3.90
2023-01-22T20:38:24.945Z,5.13
2023-01-22T20:40:54.271Z,10.53
2023-01-22T20:43:22.167Z,5.43
2023-01-22T20:45:58.997Z,8.50
2023-01-22T20:48:26.955Z,7.10
2023-01-22T20:50:54.876Z,5.20
2023-01-22T20:53:22.919Z,10.37
2023-01-22T20:56:00.536Z,6.73
2023-01-22T20:58:28.524Z,9.50
2023-01-22T21:00:56.654Z,4.80
2023-01-22T21:03:25.265Z,9.10
2023-01-22T21:05:53.158Z,10.87
2023-01-22T21:08:21.042Z,14.07
2023-01-22T21:10:56.824Z,10.27
2023-01-22T21:13:26.301Z,7.67
2023-01-22T21:15:54.419Z,5.47
2023-01-22T21:18:22.689Z,6.07
2023-01-22T21:20:54.071Z,6.03
2023-01-22T21:23:21.966Z,4.57
2023-01-22T21:25:49.870Z,13.53
2023-01-22T21:28:17.846Z,10.93
2023-01-22T21:30:47.188Z,8.70
2023-01-22T21:33:16.491Z,7.13
2023-01-22T21:35:49.497Z,10.77
2023-01-22T21:38:17.347Z,7.97
2023-01-22T21:40:45.248Z,10.20
2023-01-22T21:43:31.670Z,9.13
2023-01-22T21:46:18.774Z,10.37
2023-01-22T21:48:46.750Z,8.13
2023-01-22T21:51:14.747Z,6.93
2023-01-22T21:53:42.682Z,10.13
2023-01-22T21:56:10.626Z,8.33
2023-01-22T21:58:42.334Z,10.90
2023-01-22T22:01:12.335Z,7.57
2023-01-22T22:03:40.304Z,8.93
2023-01-22T22:06:08.766Z,9.10
2023-01-22T22:08:37.572Z,9.60
2023-01-22T22:11:05.701Z,8.33
2023-01-22T22:13:35.085Z,8.07
2023-01-22T22:16:03.323Z,9.57
2023-01-22T22:18:32.575Z,8.77
2023-01-22T22:21:00.958Z,9.20
2023-01-22T22:23:29.029Z,6.13
2023-01-22T22:25:56.865Z,7.90
2023-01-22T22:28:24.864Z,12.93
2023-01-22T22:30:52.814Z,4.93
2023-01-22T22:33:20.762Z,8.83
2023-01-22T22:35:50.046Z,6.10
2023-01-22T22:38:18.001Z,10.27
2023-01-22T22:40:45.923Z,17.10
2023-01-22T22:43:15.755Z,9.90
2023-01-22T22:45:43.717Z,6.43
2023-01-22T22:48:11.574Z,7.53
2023-01-22T22:50:41.052Z,7.17
2023-01-22T22:53:10.293Z,5.57
2023-01-22T22:55:41.285Z,6.90
2023-01-22T22:58:09.576Z,6.53
2023-01-22T23:00:38.181Z,6.23
2023-01-22T23:03:06.199Z,6.80
2023-01-22T23:05:37.645Z,8.10
2023-01-22T23:08:05.861Z,8.40
2023-01-22T23:10:35.196Z,9.47
2023-01-22T23:13:03.571Z,5.83
2023-01-22T23:15:31.829Z,8.43
2023-01-22T23:17:59.997Z,14.27
2023-01-22T23:20:27.890Z,6.73
2023-01-22T23:22:56.150Z,4.80
2023-01-22T23:25:24.048Z,6.77
2023-01-22T23:27:53.325Z,9.07
2023-01-22T23:30:21.485Z,9.37
2023-01-22T23:32:49.563Z,5.50
2023-01-22T23:35:17.495Z,6.73
2023-01-22T23:37:45.381Z,7.60
2023-01-22T23:40:13.989Z,5.00
2023-01-22T23:42:41.840Z,5.43
2023-01-22T23:45:12.401Z,5.20
2023-01-22T23:47:40.290Z,8.93
2023-01-22T23:50:10.269Z,6.03
2023-01-22T23:52:38.717Z,7.13
2023-01-22T23:55:07.420Z,7.40
2023-01-22T23:57:35.281Z,6.33
